sensor_id;sensor_type;location;lat;lon;timestamp;pressure;altitude;pressure_sealevel;temperature
68939;BMP180;59064;45.294;11.816;2023-02-28T00:00:35;101932.60;;;3.80
68939;BMP180;59064;45.294;11.816;2023-02-28T00:03:01;101929.20;;;3.80
68939;BMP180;59064;45.294;11.816;2023-02-28T00:05:28;101927.80;;;3.80
68939;BMP180;59064;45.294;11.816;2023-02-28T00:07:54;101923.20;;;3.80
68939;BMP180;59064;45.294;11.816;2023-02-28T00:10:27;101923.80;;;3.80
68939;BMP180;59064;45.294;11.816;2023-02-28T00:12:56;101918.40;;;3.80
68939;BMP180;59064;45.294;11.816;2023-02-28T00:15:25;101921.80;;;3.78
68939;BMP180;59064;45.294;11.816;2023-02-28T00:17:51;101921.80;;;3.76
68939;BMP180;59064;45.294;11.816;2023-02-28T00:20:18;101923.40;;;3.70
68939;BMP180;59064;45.294;11.816;2023-02-28T00:22:47;101925.40;;;3.70
68939;BMP180;59064;45.294;11.816;2023-02-28T00:25:17;101923.80;;;3.70
68939;BMP180;59064;45.294;11.816;2023-02-28T00:27:43;101930.60;;;3.70
68939;BMP180;59064;45.294;11.816;2023-02-28T00:30:13;101920.20;;;3.66
68939;BMP180;59064;45.294;11.816;2023-02-28T00:32:40;101921.00;;;3.60
68939;BMP180;59064;45.294;11.816;2023-02-28T00:35:08;101928.40;;;3.60
68939;BMP180;59064;45.294;11.816;2023-02-28T00:37:34;101930.20;;;3.60
68939;BMP180;59064;45.294;11.816;2023-02-28T00:40:00;101917.60;;;3.60
68939;BMP180;59064;45.294;11.816;2023-02-28T00:42:26;101916.20;;;3.60
68939;BMP180;59064;45.294;11.816;2023-02-28T00:44:52;101929.40;;;3.60
68939;BMP180;59064;45.294;11.816;2023-02-28T00:47:17;101934.00;;;3.60
68939;BMP180;59064;45.294;11.816;2023-02-28T00:49:43;101940.40;;;3.60
68939;BMP180;59064;45.294;11.816;2023-02-28T00:52:09;101940.20;;;3.60
68939;BMP180;59064;45.294;11.816;2023-02-28T00:54:35;101942.20;;;3.60
68939;BMP180;59064;45.294;11.816;2023-02-28T00:57:00;101933.00;;;3.60
68939;BMP180;59064;45.294;11.816;2023-02-28T00:59:26;101948.20;;;3.60
68939;BMP180;59064;45.294;11.816;2023-02-28T01:01:52;101940.20;;;3.60
68939;BMP180;59064;45.294;11.816;2023-02-28T01:04:18;101939.40;;;3.60
68939;BMP180;59064;45.294;11.816;2023-02-28T01:06:43;101952.00;;;3.60
68939;BMP180;59064;45.294;11.816;2023-02-28T01:09:10;101959.80;;;3.60
68939;BMP180;59064;45.294;11.816;2023-02-28T01:11:36;101950.60;;;3.60
68939;BMP180;59064;45.294;11.816;2023-02-28T01:14:03;101952.20;;;3.60
68939;BMP180;59064;45.294;11.816;2023-02-28T01:16:29;101957.60;;;3.60
68939;BMP180;59064;45.294;11.816;2023-02-28T01:18:56;101959.00;;;3.60
68939;BMP180;59064;45.294;11.816;2023-02-28T01:21:22;101959.20;;;3.60
68939;BMP180;59064;45.294;11.816;2023-02-28T01:23:48;101953.40;;;3.60
68939;BMP180;59064;45.294;11.816;2023-02-28T01:26:24;101960.80;;;3.60
68939;BMP180;59064;45.294;11.816;2023-02-28T01:28:51;101948.60;;;3.52
68939;BMP180;59064;45.294;11.816;2023-02-28T01:31:18;101954.40;;;3.54
68939;BMP180;59064;45.294;11.816;2023-02-28T01:33:45;101951.00;;;3.50
68939;BMP180;59064;45.294;11.816;2023-02-28T01:36:13;101947.20;;;3.50
68939;BMP180;59064;45.294;11.816;2023-02-28T01:38:39;101956.00;;;3.50
68939;BMP180;59064;45.294;11.816;2023-02-28T01:41:07;101956.80;;;3.50
68939;BMP180;59064;45.294;11.816;2023-02-28T01:46:07;101970.00;;;3.50
68939;BMP180;59064;45.294;11.816;2023-02-28T01:48:42;101961.20;;;3.50
68939;BMP180;59064;45.294;11.816;2023-02-28T01:51:18;101962.80;;;3.50
68939;BMP180;59064;45.294;11.816;2023-02-28T01:53:50;101955.80;;;3.50
68939;BMP180;59064;45.294;11.816;2023-02-28T01:56:21;101957.80;;;3.50
68939;BMP180;59064;45.294;11.816;2023-02-28T01:58:51;101958.40;;;3.46
68939;BMP180;59064;45.294;11.816;2023-02-28T02:01:19;101956.40;;;3.40
68939;BMP180;59064;45.294;11.816;2023-02-28T02:03:54;101948.80;;;3.40
68939;BMP180;59064;45.294;11.816;2023-02-28T02:06:25;101950.60;;;3.40
68939;BMP180;59064;45.294;11.816;2023-02-28T02:08:53;101948.20;;;3.40
68939;BMP180;59064;45.294;11.816;2023-02-28T02:11:21;101949.60;;;3.40
68939;BMP180;59064;45.294;11.816;2023-02-28T02:17:39;101942.20;;;3.38
68939;BMP180;59064;45.294;11.816;2023-02-28T02:29:51;101946.80;;;3.30
68939;BMP180;59064;45.294;11.816;2023-02-28T02:43:56;101957.60;;;3.40
68939;BMP180;59064;45.294;11.816;2023-02-28T02:46:31;101952.20;;;3.36
68939;BMP180;59064;45.294;11.816;2023-02-28T02:49:00;101957.20;;;3.32
68939;BMP180;59064;45.294;11.816;2023-02-28T02:51:30;101955.60;;;3.30
68939;BMP180;59064;45.294;11.816;2023-02-28T02:54:13;101956.40;;;3.30
68939;BMP180;59064;45.294;11.816;2023-02-28T02:56:47;101956.20;;;3.40
68939;BMP180;59064;45.294;11.816;2023-02-28T02:59:18;101939.00;;;3.40
68939;BMP180;59064;45.294;11.816;2023-02-28T03:01:53;101947.40;;;3.40
68939;BMP180;59064;45.294;11.816;2023-02-28T03:04:25;101950.00;;;3.40
68939;BMP180;59064;45.294;11.816;2023-02-28T03:06:53;101950.20;;;3.40
68939;BMP180;59064;45.294;11.816;2023-02-28T03:09:23;101950.80;;;3.40
68939;BMP180;59064;45.294;11.816;2023-02-28T03:11:51;101950.40;;;3.40
68939;BMP180;59064;45.294;11.816;2023-02-28T03:20:12;101955.20;;;3.40
68939;BMP180;59064;45.294;11.816;2023-02-28T03:28:41;101953.00;;;3.40
68939;BMP180;59064;45.294;11.816;2023-02-28T03:36:36;101944.60;;;3.40
68939;BMP180;59064;45.294;11.816;2023-02-28T03:39:17;101950.40;;;3.40
68939;BMP180;59064;45.294;11.816;2023-02-28T03:41:52;101957.20;;;3.40
68939;BMP180;59064;45.294;11.816;2023-02-28T03:44:32;101958.00;;;3.40
68939;BMP180;59064;45.294;11.816;2023-02-28T03:47:06;101951.40;;;3.40
68939;BMP180;59064;45.294;11.816;2023-02-28T03:49:48;101956.00;;;3.40
68939;BMP180;59064;45.294;11.816;2023-02-28T03:52:17;101954.20;;;3.40
68939;BMP180;59064;45.294;11.816;2023-02-28T03:54:50;101953.20;;;3.36
68939;BMP180;59064;45.294;11.816;2023-02-28T04:00:12;101946.40;;;3.30
68939;BMP180;59064;45.294;11.816;2023-02-28T04:02:40;101948.60;;;3.30
68939;BMP180;59064;45.294;11.816;2023-02-28T04:05:07;101948.80;;;3.30
68939;BMP180;59064;45.294;11.816;2023-02-28T04:07:34;101945.80;;;3.20
68939;BMP180;59064;45.294;11.816;2023-02-28T04:09:59;101942.40;;;3.20
68939;BMP180;59064;45.294;11.816;2023-02-28T04:12:25;101943.40;;;3.16
68939;BMP180;59064;45.294;11.816;2023-02-28T04:14:51;101947.80;;;3.10
68939;BMP180;59064;45.294;11.816;2023-02-28T04:17:17;101946.00;;;3.00
68939;BMP180;59064;45.294;11.816;2023-02-28T04:19:43;101947.60;;;2.90
68939;BMP180;59064;45.294;11.816;2023-02-28T04:22:10;101945.60;;;2.80
68939;BMP180;59064;45.294;11.816;2023-02-28T04:24:35;101951.20;;;2.70
68939;BMP180;59064;45.294;11.816;2023-02-28T04:27:01;101946.80;;;2.60
68939;BMP180;59064;45.294;11.816;2023-02-28T04:29:30;101944.60;;;2.44
68939;BMP180;59064;45.294;11.816;2023-02-28T04:31:59;101946.20;;;2.32
68939;BMP180;59064;45.294;11.816;2023-02-28T04:34:30;101954.00;;;2.20
68939;BMP180;59064;45.294;11.816;2023-02-28T04:36:57;101952.80;;;2.10
68939;BMP180;59064;45.294;11.816;2023-02-28T04:39:24;101951.40;;;2.10
68939;BMP180;59064;45.294;11.816;2023-02-28T04:41:50;101951.00;;;2.00
68939;BMP180;59064;45.294;11.816;2023-02-28T04:44:16;101954.40;;;1.90
68939;BMP180;59064;45.294;11.816;2023-02-28T04:46:42;101962.00;;;1.90
68939;BMP180;59064;45.294;11.816;2023-02-28T04:49:12;101964.80;;;1.80
68939;BMP180;59064;45.294;11.816;2023-02-28T04:51:38;101961.60;;;1.78
68939;BMP180;59064;45.294;11.816;2023-02-28T04:54:04;101967.20;;;1.70
68939;BMP180;59064;45.294;11.816;2023-02-28T04:56:30;101968.20;;;1.70
68939;BMP180;59064;45.294;11.816;2023-02-28T04:58:56;101965.80;;;1.70
68939;BMP180;59064;45.294;11.816;2023-02-28T05:01:28;101970.20;;;1.70
68939;BMP180;59064;45.294;11.816;2023-02-28T05:03:57;101971.40;;;1.70
68939;BMP180;59064;45.294;11.816;2023-02-28T05:06:26;101974.20;;;1.60
68939;BMP180;59064;45.294;11.816;2023-02-28T05:08:53;101974.20;;;1.60
68939;BMP180;59064;45.294;11.816;2023-02-28T05:11:29;101973.20;;;1.60
68939;BMP180;59064;45.294;11.816;2023-02-28T05:13:59;101974.20;;;1.64
68939;BMP180;59064;45.294;11.816;2023-02-28T05:16:24;101980.40;;;1.70
68939;BMP180;59064;45.294;11.816;2023-02-28T05:18:50;101979.00;;;1.70
68939;BMP180;59064;45.294;11.816;2023-02-28T05:21:39;101982.20;;;1.70
68939;BMP180;59064;45.294;11.816;2023-02-28T05:24:09;101981.40;;;1.68
68939;BMP180;59064;45.294;11.816;2023-02-28T05:26:38;101982.60;;;1.70
68939;BMP180;59064;45.294;11.816;2023-02-28T05:29:04;101975.80;;;1.70
68939;BMP180;59064;45.294;11.816;2023-02-28T05:31:30;101979.00;;;1.70
68939;BMP180;59064;45.294;11.816;2023-02-28T05:33:56;101976.80;;;1.70
68939;BMP180;59064;45.294;11.816;2023-02-28T05:36:22;101971.20;;;1.70
68939;BMP180;59064;45.294;11.816;2023-02-28T05:38:49;101976.00;;;1.70
68939;BMP180;59064;45.294;11.816;2023-02-28T05:41:15;101972.80;;;1.70
68939;BMP180;59064;45.294;11.816;2023-02-28T05:43:41;101973.00;;;1.70
68939;BMP180;59064;45.294;11.816;2023-02-28T05:46:09;101976.80;;;1.68
68939;BMP180;59064;45.294;11.816;2023-02-28T05:48:37;101984.00;;;1.60
68939;BMP180;59064;45.294;11.816;2023-02-28T05:51:04;101982.60;;;1.60
68939;BMP180;59064;45.294;11.816;2023-02-28T05:53:31;101985.80;;;1.50
68939;BMP180;59064;45.294;11.816;2023-02-28T05:55:57;101983.80;;;1.50
68939;BMP180;59064;45.294;11.816;2023-02-28T05:58:23;101983.20;;;1.50
68939;BMP180;59064;45.294;11.816;2023-02-28T06:00:51;101981.60;;;1.50
68939;BMP180;59064;45.294;11.816;2023-02-28T06:03:17;101985.80;;;1.50
68939;BMP180;59064;45.294;11.816;2023-02-28T06:05:42;101980.40;;;1.50
68939;BMP180;59064;45.294;11.816;2023-02-28T06:08:08;101985.80;;;1.48
68939;BMP180;59064;45.294;11.816;2023-02-28T06:10:37;101986.40;;;1.46
68939;BMP180;59064;45.294;11.816;2023-02-28T06:13:06;101992.60;;;1.50
68939;BMP180;59064;45.294;11.816;2023-02-28T06:15:32;101992.40;;;1.50
68939;BMP180;59064;45.294;11.816;2023-02-28T06:17:58;101993.20;;;1.56
68939;BMP180;59064;45.294;11.816;2023-02-28T06:20:25;101993.00;;;1.60
68939;BMP180;59064;45.294;11.816;2023-02-28T06:22:58;101992.20;;;1.70
68939;BMP180;59064;45.294;11.816;2023-02-28T06:25:26;101995.00;;;1.74
68939;BMP180;59064;45.294;11.816;2023-02-28T06:27:52;101993.40;;;1.80
68939;BMP180;59064;45.294;11.816;2023-02-28T06:30:18;102000.40;;;1.90
68939;BMP180;59064;45.294;11.816;2023-02-28T06:32:49;102006.60;;;2.00
68939;BMP180;59064;45.294;11.816;2023-02-28T06:35:14;102004.80;;;2.10
68939;BMP180;59064;45.294;11.816;2023-02-28T06:37:40;102009.20;;;2.20
68939;BMP180;59064;45.294;11.816;2023-02-28T06:40:08;102011.40;;;2.30
68939;BMP180;59064;45.294;11.816;2023-02-28T06:42:34;102003.00;;;2.40
68939;BMP180;59064;45.294;11.816;2023-02-28T06:45:00;102009.00;;;2.50
68939;BMP180;59064;45.294;11.816;2023-02-28T06:47:30;102011.20;;;2.60
68939;BMP180;59064;45.294;11.816;2023-02-28T06:49:55;102016.20;;;2.70
68939;BMP180;59064;45.294;11.816;2023-02-28T06:52:21;102012.20;;;2.80
68939;BMP180;59064;45.294;11.816;2023-02-28T06:54:47;102010.80;;;2.90
68939;BMP180;59064;45.294;11.816;2023-02-28T06:57:27;102011.00;;;3.00
68939;BMP180;59064;45.294;11.816;2023-02-28T06:59:55;102018.80;;;3.10
68939;BMP180;59064;45.294;11.816;2023-02-28T07:02:21;102025.20;;;3.20
68939;BMP180;59064;45.294;11.816;2023-02-28T07:04:47;102025.40;;;3.22
68939;BMP180;59064;45.294;11.816;2023-02-28T07:07:12;102021.40;;;3.30
68939;BMP180;59064;45.294;11.816;2023-02-28T07:09:38;102022.40;;;3.40
68939;BMP180;59064;45.294;11.816;2023-02-28T07:12:04;102024.60;;;3.50
68939;BMP180;59064;45.294;11.816;2023-02-28T07:14:30;102029.00;;;3.60
68939;BMP180;59064;45.294;11.816;2023-02-28T07:16:55;102029.00;;;3.70
68939;BMP180;59064;45.294;11.816;2023-02-28T07:19:21;102027.80;;;3.80
68939;BMP180;59064;45.294;11.816;2023-02-28T07:21:46;102024.60;;;3.90
68939;BMP180;59064;45.294;11.816;2023-02-28T07:24:12;102031.40;;;4.00
68939;BMP180;59064;45.294;11.816;2023-02-28T07:26:41;102027.00;;;4.14
68939;BMP180;59064;45.294;11.816;2023-02-28T07:29:07;102028.40;;;4.24
68939;BMP180;59064;45.294;11.816;2023-02-28T07:31:32;102032.80;;;4.40
68939;BMP180;59064;45.294;11.816;2023-02-28T07:33:58;102031.20;;;4.60
68939;BMP180;59064;45.294;11.816;2023-02-28T07:36:24;102024.80;;;4.70
68939;BMP180;59064;45.294;11.816;2023-02-28T07:38:50;102021.00;;;4.80
68939;BMP180;59064;45.294;11.816;2023-02-28T07:41:18;102023.00;;;4.90
68939;BMP180;59064;45.294;11.816;2023-02-28T07:43:44;102015.40;;;4.92
68939;BMP180;59064;45.294;11.816;2023-02-28T07:46:14;102019.60;;;5.02
68939;BMP180;59064;45.294;11.816;2023-02-28T07:48:44;102011.20;;;5.20
68939;BMP180;59064;45.294;11.816;2023-02-28T07:51:10;102011.00;;;5.30
68939;BMP180;59064;45.294;11.816;2023-02-28T07:53:36;102013.20;;;5.20
68939;BMP180;59064;45.294;11.816;2023-02-28T07:56:02;102014.80;;;5.30
68939;BMP180;59064;45.294;11.816;2023-02-28T07:58:29;102013.20;;;5.50
68939;BMP180;59064;45.294;11.816;2023-02-28T08:00:56;102017.80;;;5.60
68939;BMP180;59064;45.294;11.816;2023-02-28T08:03:23;102014.40;;;5.60
68939;BMP180;59064;45.294;11.816;2023-02-28T08:05:49;102021.40;;;5.60
68939;BMP180;59064;45.294;11.816;2023-02-28T08:08:16;102013.00;;;5.70
68939;BMP180;59064;45.294;11.816;2023-02-28T08:10:43;102014.00;;;5.70
68939;BMP180;59064;45.294;11.816;2023-02-28T08:13:09;102008.40;;;5.70
68939;BMP180;59064;45.294;11.816;2023-02-28T08:15:35;102017.20;;;5.84
68939;BMP180;59064;45.294;11.816;2023-02-28T08:18:01;102020.40;;;5.90
68939;BMP180;59064;45.294;11.816;2023-02-28T08:20:27;102020.00;;;6.00
68939;BMP180;59064;45.294;11.816;2023-02-28T08:22:53;102016.80;;;6.00
68939;BMP180;59064;45.294;11.816;2023-02-28T08:25:19;102016.80;;;6.00
68939;BMP180;59064;45.294;11.816;2023-02-28T08:27:45;102013.00;;;5.98
68939;BMP180;59064;45.294;11.816;2023-02-28T08:30:13;102026.40;;;6.10
68939;BMP180;59064;45.294;11.816;2023-02-28T08:32:40;102032.60;;;6.30
68939;BMP180;59064;45.294;11.816;2023-02-28T08:35:06;102020.20;;;6.40
68939;BMP180;59064;45.294;11.816;2023-02-28T08:37:32;102032.40;;;6.50
68939;BMP180;59064;45.294;11.816;2023-02-28T08:39:57;102025.40;;;6.68
68939;BMP180;59064;45.294;11.816;2023-02-28T08:42:24;102030.00;;;6.84
68939;BMP180;59064;45.294;11.816;2023-02-28T08:44:49;102009.60;;;6.98
68939;BMP180;59064;45.294;11.816;2023-02-28T08:47:15;102020.00;;;6.98
68939;BMP180;59064;45.294;11.816;2023-02-28T08:49:41;102022.60;;;6.88
68939;BMP180;59064;45.294;11.816;2023-02-28T08:52:07;102024.00;;;7.00
68939;BMP180;59064;45.294;11.816;2023-02-28T08:54:32;102039.80;;;7.00
68939;BMP180;59064;45.294;11.816;2023-02-28T08:56:59;102037.00;;;7.20
68939;BMP180;59064;45.294;11.816;2023-02-28T08:59:25;102036.60;;;7.30
68939;BMP180;59064;45.294;11.816;2023-02-28T09:01:51;102032.20;;;7.30
68939;BMP180;59064;45.294;11.816;2023-02-28T09:04:17;102027.00;;;7.26
68939;BMP180;59064;45.294;11.816;2023-02-28T09:06:43;102044.00;;;7.28
68939;BMP180;59064;45.294;11.816;2023-02-28T09:09:09;102032.40;;;7.30
68939;BMP180;59064;45.294;11.816;2023-02-28T09:11:36;102018.00;;;7.40
68939;BMP180;59064;45.294;11.816;2023-02-28T09:14:02;102024.20;;;7.40
68939;BMP180;59064;45.294;11.816;2023-02-28T09:16:32;102018.20;;;7.40
68939;BMP180;59064;45.294;11.816;2023-02-28T09:18:58;102043.60;;;7.50
68939;BMP180;59064;45.294;11.816;2023-02-28T09:21:24;102022.20;;;7.60
68939;BMP180;59064;45.294;11.816;2023-02-28T09:23:50;102035.40;;;7.68
68939;BMP180;59064;45.294;11.816;2023-02-28T09:26:26;102025.20;;;7.80
68939;BMP180;59064;45.294;11.816;2023-02-28T09:28:54;102032.00;;;7.60
68939;BMP180;59064;45.294;11.816;2023-02-28T09:31:26;102026.20;;;7.70
68939;BMP180;59064;45.294;11.816;2023-02-28T09:33:56;102018.20;;;7.80
68939;BMP180;59064;45.294;11.816;2023-02-28T09:36:24;102033.00;;;7.80
68939;BMP180;59064;45.294;11.816;2023-02-28T09:38:51;102039.20;;;8.06
68939;BMP180;59064;45.294;11.816;2023-02-28T09:41:38;102029.80;;;8.30
68939;BMP180;59064;45.294;11.816;2023-02-28T09:44:38;102022.20;;;8.40
68939;BMP180;59064;45.294;11.816;2023-02-28T09:47:14;102036.20;;;8.30
68939;BMP180;59064;45.294;11.816;2023-02-28T09:49:45;102043.20;;;8.32
68939;BMP180;59064;45.294;11.816;2023-02-28T09:52:20;102038.60;;;8.40
68939;BMP180;59064;45.294;11.816;2023-02-28T09:54:47;102047.00;;;8.50
68939;BMP180;59064;45.294;11.816;2023-02-28T10:00:34;102041.20;;;8.80
68939;BMP180;59064;45.294;11.816;2023-02-28T10:05:48;102035.60;;;8.70
68939;BMP180;59064;45.294;11.816;2023-02-28T10:08:25;102039.00;;;8.52
68939;BMP180;59064;45.294;11.816;2023-02-28T10:11:03;102047.00;;;8.60
68939;BMP180;59064;45.294;11.816;2023-02-28T10:16:17;102052.60;;;8.54
68939;BMP180;59064;45.294;11.816;2023-02-28T10:21:30;102051.60;;;8.50
68939;BMP180;59064;45.294;11.816;2023-02-28T10:24:26;102047.60;;;8.40
68939;BMP180;59064;45.294;11.816;2023-02-28T10:27:00;102049.80;;;8.30
68939;BMP180;59064;45.294;11.816;2023-02-28T10:29:28;102048.00;;;8.20
68939;BMP180;59064;45.294;11.816;2023-02-28T10:31:57;102057.60;;;8.20
68939;BMP180;59064;45.294;11.816;2023-02-28T10:34:24;102055.80;;;8.40
68939;BMP180;59064;45.294;11.816;2023-02-28T10:36:50;102053.40;;;8.52
68939;BMP180;59064;45.294;11.816;2023-02-28T10:39:42;102055.80;;;8.52
68939;BMP180;59064;45.294;11.816;2023-02-28T10:42:29;102052.60;;;8.50
68939;BMP180;59064;45.294;11.816;2023-02-28T10:45:16;102049.80;;;8.50
68939;BMP180;59064;45.294;11.816;2023-02-28T10:48:01;102057.40;;;8.62
68939;BMP180;59064;45.294;11.816;2023-02-28T10:58:57;102037.40;;;8.72
68939;BMP180;59064;45.294;11.816;2023-02-28T11:01:40;102035.60;;;8.80
68939;BMP180;59064;45.294;11.816;2023-02-28T11:07:20;102019.80;;;9.10
68939;BMP180;59064;45.294;11.816;2023-02-28T11:09:59;102016.20;;;9.20
68939;BMP180;59064;45.294;11.816;2023-02-28T11:12:37;102034.60;;;9.26
68939;BMP180;59064;45.294;11.816;2023-02-28T11:15:26;102018.60;;;9.50
68939;BMP180;59064;45.294;11.816;2023-02-28T11:18:22;102019.80;;;9.60
68939;BMP180;59064;45.294;11.816;2023-02-28T11:20:54;102006.60;;;9.64
68939;BMP180;59064;45.294;11.816;2023-02-28T11:23:24;102018.40;;;10.10
68939;BMP180;59064;45.294;11.816;2023-02-28T11:25:58;102006.00;;;9.82
68939;BMP180;59064;45.294;11.816;2023-02-28T11:33:52;101995.00;;;10.08
68939;BMP180;59064;45.294;11.816;2023-02-28T11:36:23;101993.40;;;10.00
68939;BMP180;59064;45.294;11.816;2023-02-28T11:38:56;101989.20;;;9.90
68939;BMP180;59064;45.294;11.816;2023-02-28T11:48:14;101982.00;;;10.10
68939;BMP180;59064;45.294;11.816;2023-02-28T11:51:21;101981.00;;;9.82
68939;BMP180;59064;45.294;11.816;2023-02-28T11:54:00;101968.40;;;9.90
68939;BMP180;59064;45.294;11.816;2023-02-28T11:56:58;101992.20;;;9.92
68939;BMP180;59064;45.294;11.816;2023-02-28T12:02:37;101982.40;;;10.00
68939;BMP180;59064;45.294;11.816;2023-02-28T12:19:20;101952.80;;;11.30
68939;BMP180;59064;45.294;11.816;2023-02-28T12:25:21;101957.40;;;12.00
68939;BMP180;59064;45.294;11.816;2023-02-28T12:27:49;101956.20;;;12.28
68939;BMP180;59064;45.294;11.816;2023-02-28T12:30:27;101959.40;;;12.30
68939;BMP180;59064;45.294;11.816;2023-02-28T12:33:04;101946.80;;;12.24
68939;BMP180;59064;45.294;11.816;2023-02-28T12:35:40;101950.80;;;12.18
68939;BMP180;59064;45.294;11.816;2023-02-28T12:38:25;101952.40;;;12.40
68939;BMP180;59064;45.294;11.816;2023-02-28T12:41:00;101948.00;;;12.48
68939;BMP180;59064;45.294;11.816;2023-02-28T12:43:42;101940.00;;;12.52
68939;BMP180;59064;45.294;11.816;2023-02-28T12:46:24;101936.80;;;12.60
68939;BMP180;59064;45.294;11.816;2023-02-28T12:52:13;101944.00;;;13.20
68939;BMP180;59064;45.294;11.816;2023-02-28T12:55:12;101934.40;;;13.34
68939;BMP180;59064;45.294;11.816;2023-02-28T13:00:35;101926.60;;;13.50
68939;BMP180;59064;45.294;11.816;2023-02-28T13:03:39;101929.40;;;13.50
68939;BMP180;59064;45.294;11.816;2023-02-28T13:09:15;101922.20;;;13.50
68939;BMP180;59064;45.294;11.816;2023-02-28T13:11:52;101924.60;;;13.50
68939;BMP180;59064;45.294;11.816;2023-02-28T13:14:36;101922.00;;;14.06
68939;BMP180;59064;45.294;11.816;2023-02-28T13:17:10;101917.40;;;14.48
68939;BMP180;59064;45.294;11.816;2023-02-28T13:20:13;101918.20;;;14.30
68939;BMP180;59064;45.294;11.816;2023-02-28T13:22:51;101914.60;;;14.10
68939;BMP180;59064;45.294;11.816;2023-02-28T13:28:01;101912.60;;;14.24
68939;BMP180;59064;45.294;11.816;2023-02-28T13:44:10;101881.60;;;14.72
68939;BMP180;59064;45.294;11.816;2023-02-28T13:54:56;101879.20;;;13.98
68939;BMP180;59064;45.294;11.816;2023-02-28T14:02:11;101893.00;;;13.20
68939;BMP180;59064;45.294;11.816;2023-02-28T14:07:53;101884.80;;;12.94
68939;BMP180;59064;45.294;11.816;2023-02-28T14:10:39;101886.80;;;13.32
68939;BMP180;59064;45.294;11.816;2023-02-28T14:16:03;101877.40;;;14.30
68939;BMP180;59064;45.294;11.816;2023-02-28T14:18:37;101882.60;;;14.74
68939;BMP180;59064;45.294;11.816;2023-02-28T14:21:14;101873.60;;;15.10
68939;BMP180;59064;45.294;11.816;2023-02-28T14:27:07;101871.80;;;15.50
68939;BMP180;59064;45.294;11.816;2023-02-28T14:30:02;101863.80;;;15.50
68939;BMP180;59064;45.294;11.816;2023-02-28T14:38:57;101852.20;;;15.72
68939;BMP180;59064;45.294;11.816;2023-02-28T14:41:33;101860.20;;;15.30
68939;BMP180;59064;45.294;11.816;2023-02-28T14:44:21;101845.00;;;15.40
68939;BMP180;59064;45.294;11.816;2023-02-28T14:47:00;101854.60;;;15.18
68939;BMP180;59064;45.294;11.816;2023-02-28T14:49:37;101855.80;;;13.82
68939;BMP180;59064;45.294;11.816;2023-02-28T14:52:20;101859.40;;;13.44
68939;BMP180;59064;45.294;11.816;2023-02-28T14:54:52;101859.00;;;12.80
68939;BMP180;59064;45.294;11.816;2023-02-28T14:57:59;101857.60;;;12.32
68939;BMP180;59064;45.294;11.816;2023-02-28T15:00:30;101856.00;;;12.00
68939;BMP180;59064;45.294;11.816;2023-02-28T15:02:58;101855.20;;;11.94
68939;BMP180;59064;45.294;11.816;2023-02-28T15:05:31;101852.60;;;11.80
68939;BMP180;59064;45.294;11.816;2023-02-28T15:08:20;101859.80;;;11.70
68939;BMP180;59064;45.294;11.816;2023-02-28T15:13:21;101853.80;;;11.20
68939;BMP180;59064;45.294;11.816;2023-02-28T15:16:09;101861.20;;;10.92
68939;BMP180;59064;45.294;11.816;2023-02-28T15:18:56;101855.40;;;10.70
68939;BMP180;59064;45.294;11.816;2023-02-28T15:21:31;101857.60;;;10.42
68939;BMP180;59064;45.294;11.816;2023-02-28T15:24:42;101862.60;;;10.30
68939;BMP180;59064;45.294;11.816;2023-02-28T15:29:51;101856.80;;;10.30
68939;BMP180;59064;45.294;11.816;2023-02-28T15:32:34;101852.40;;;10.08
68939;BMP180;59064;45.294;11.816;2023-02-28T15:35:31;101848.20;;;9.90
68939;BMP180;59064;45.294;11.816;2023-02-28T15:38:23;101850.20;;;9.60
68939;BMP180;59064;45.294;11.816;2023-02-28T15:40:58;101845.60;;;9.40
68939;BMP180;59064;45.294;11.816;2023-02-28T15:45:56;101840.40;;;9.20
68939;BMP180;59064;45.294;11.816;2023-02-28T15:48:30;101838.60;;;9.10
68939;BMP180;59064;45.294;11.816;2023-02-28T15:51:36;101844.00;;;8.96
68939;BMP180;59064;45.294;11.816;2023-02-28T15:54:16;101842.80;;;8.80
68939;BMP180;59064;45.294;11.816;2023-02-28T15:56:47;101839.40;;;8.70
68939;BMP180;59064;45.294;11.816;2023-02-28T15:59:36;101833.20;;;8.66
68939;BMP180;59064;45.294;11.816;2023-02-28T16:04:36;101845.80;;;8.50
68939;BMP180;59064;45.294;11.816;2023-02-28T16:07:05;101838.40;;;8.50
68939;BMP180;59064;45.294;11.816;2023-02-28T16:09:31;101843.40;;;8.40
68939;BMP180;59064;45.294;11.816;2023-02-28T16:12:01;101843.80;;;8.40
68939;BMP180;59064;45.294;11.816;2023-02-28T16:14:29;101840.20;;;8.38
68939;BMP180;59064;45.294;11.816;2023-02-28T16:17:15;101844.80;;;8.30
68939;BMP180;59064;45.294;11.816;2023-02-28T16:19:42;101844.20;;;8.20
68939;BMP180;59064;45.294;11.816;2023-02-28T16:22:09;101840.60;;;8.20
68939;BMP180;59064;45.294;11.816;2023-02-28T16:24:35;101841.60;;;8.10
68939;BMP180;59064;45.294;11.816;2023-02-28T16:27:01;101851.80;;;8.10
68939;BMP180;59064;45.294;11.816;2023-02-28T16:29:31;101845.80;;;8.00
68939;BMP180;59064;45.294;11.816;2023-02-28T16:31:58;101854.80;;;8.00
68939;BMP180;59064;45.294;11.816;2023-02-28T16:34:24;101850.00;;;7.90
68939;BMP180;59064;45.294;11.816;2023-02-28T16:36:50;101847.60;;;7.90
68939;BMP180;59064;45.294;11.816;2023-02-28T16:39:17;101851.20;;;7.80
68939;BMP180;59064;45.294;11.816;2023-02-28T16:41:45;101852.60;;;7.80
68939;BMP180;59064;45.294;11.816;2023-02-28T16:44:27;101841.40;;;7.70
68939;BMP180;59064;45.294;11.816;2023-02-28T16:46:54;101841.80;;;7.64
68939;BMP180;59064;45.294;11.816;2023-02-28T16:49:20;101837.60;;;7.60
68939;BMP180;59064;45.294;11.816;2023-02-28T16:51:46;101842.80;;;7.50
68939;BMP180;59064;45.294;11.816;2023-02-28T16:54:12;101841.40;;;7.50
68939;BMP180;59064;45.294;11.816;2023-02-28T16:56:44;101839.40;;;7.46
68939;BMP180;59064;45.294;11.816;2023-02-28T16:59:10;101833.60;;;7.40
68939;BMP180;59064;45.294;11.816;2023-02-28T17:01:36;101833.20;;;7.30
68939;BMP180;59064;45.294;11.816;2023-02-28T17:04:02;101835.40;;;7.30